createdAt,value
2022-10-29T00:03:22.978Z,13
2022-10-29T00:08:35.328Z,13
2022-10-29T00:13:47.234Z,13
2022-10-29T00:18:59.132Z,13
2022-10-29T00:24:11.131Z,13
2022-10-29T00:29:22.967Z,13
2022-10-29T00:34:41.650Z,13
2022-10-29T00:39:56.315Z,13
2022-10-29T00:45:08.108Z,13
2022-10-29T00:50:19.877Z,13
2022-10-29T00:55:31.633Z,13
2022-10-29T01:00:43.564Z,13
2022-10-29T01:05:55.377Z,13
2022-10-29T01:11:07.310Z,12
2022-10-29T01:16:19.391Z,12
2022-10-29T01:21:31.347Z,13
2022-10-29T01:26:43.292Z,13
2022-10-29T01:31:55.334Z,13
2022-10-29T01:37:07.269Z,13
2022-10-29T01:42:19.222Z,12
2022-10-29T01:47:42.640Z,12
2022-10-29T01:52:54.662Z,12
2022-10-29T01:58:06.832Z,12
2022-10-29T02:03:18.581Z,12
2022-10-29T02:08:30.392Z,12
2022-10-29T02:13:42.343Z,12
2022-10-29T02:18:54.323Z,12
2022-10-29T02:24:06.242Z,12
2022-10-29T02:29:18.055Z,12
2022-10-29T02:34:29.500Z,12
2022-10-29T02:39:41.301Z,12
2022-10-29T02:44:53.218Z,12
2022-10-29T02:50:05.091Z,12
2022-10-29T02:55:16.882Z,12
2022-10-29T03:00:28.710Z,11
2022-10-29T03:05:49.317Z,11
2022-10-29T03:10:59.142Z,11
2022-10-29T03:16:10.924Z,11
2022-10-29T03:21:22.873Z,11
2022-10-29T03:26:34.832Z,11
2022-10-29T03:31:46.742Z,11
2022-10-29T03:36:58.645Z,11
2022-10-29T03:42:10.649Z,11
2022-10-29T03:47:22.696Z,11
2022-10-29T03:52:34.415Z,11
2022-10-29T03:57:46.351Z,11
2022-10-29T04:02:59.829Z,11
2022-10-29T04:08:11.943Z,11
2022-10-29T04:13:23.739Z,11
2022-10-29T04:18:35.795Z,11
2022-10-29T04:32:10.401Z,11
2022-10-29T04:37:21.288Z,11
2022-10-29T04:42:32.884Z,11
2022-10-29T04:47:44.669Z,11
2022-10-29T04:52:56.462Z,11
2022-10-29T04:58:08.442Z,11
2022-10-29T05:03:20.206Z,10
2022-10-29T05:08:32.097Z,10
2022-10-29T05:13:43.822Z,10
2022-10-29T05:18:55.811Z,10
2022-10-29T05:24:07.797Z,10
2022-10-29T05:29:19.635Z,10
2022-10-29T05:34:31.474Z,10
2022-10-29T05:39:43.250Z,10
2022-10-29T05:44:55.182Z,10
2022-10-29T05:50:07.095Z,10
2022-10-29T05:55:18.908Z,10
2022-10-29T06:00:30.839Z,10
2022-10-29T06:05:42.814Z,10
2022-10-29T06:10:54.940Z,11
2022-10-29T06:16:06.689Z,10
2022-10-29T06:21:18.462Z,10
2022-10-29T06:26:30.310Z,10
2022-10-29T06:31:42.102Z,10
2022-10-29T06:36:54.003Z,10
2022-10-29T06:42:05.960Z,11
2022-10-29T06:47:17.771Z,11
2022-10-29T06:52:29.862Z,11
2022-10-29T06:57:41.798Z,11
2022-10-29T07:02:54.656Z,11
2022-10-29T07:08:07.044Z,11
2022-10-29T07:13:19.100Z,11
2022-10-29T07:18:31.072Z,11
2022-10-29T07:23:43.061Z,11
2022-10-29T07:28:55.227Z,11
2022-10-29T07:34:07.226Z,12
2022-10-29T07:39:19.323Z,12
2022-10-29T07:44:31.412Z,12
2022-10-29T07:49:43.438Z,12
2022-10-29T07:54:55.614Z,12
2022-10-29T08:00:07.860Z,12
2022-10-29T08:05:19.995Z,13
2022-10-29T08:10:32.023Z,13
2022-10-29T08:15:44.133Z,13
2022-10-29T08:20:56.062Z,14
2022-10-29T08:26:08.216Z,14
2022-10-29T08:31:20.242Z,14
2022-10-29T08:36:32.130Z,14
2022-10-29T08:41:44.300Z,15
2022-10-29T08:46:56.302Z,15
2022-10-29T08:52:08.471Z,15
2022-10-29T08:57:20.475Z,15
2022-10-29T09:02:40.531Z,16
2022-10-29T09:08:02.872Z,16
2022-10-29T09:13:17.576Z,16
2022-10-29T09:18:29.734Z,16
2022-10-29T09:23:41.653Z,17
2022-10-29T09:28:53.846Z,17
2022-10-29T09:34:06.428Z,17
2022-10-29T09:39:24.934Z,17
2022-10-29T09:44:40.585Z,17
2022-10-29T09:49:52.684Z,17
2022-10-29T09:55:04.786Z,18
2022-10-29T10:00:16.845Z,18
2022-10-29T10:05:29.347Z,18
2022-10-29T10:10:41.322Z,18
2022-10-29T10:15:53.635Z,19
2022-10-29T10:21:05.868Z,19
2022-10-29T10:26:17.922Z,19
2022-10-29T10:31:30.198Z,19
2022-10-29T10:36:42.592Z,19
2022-10-29T10:41:54.638Z,20
2022-10-29T10:47:06.853Z,20
2022-10-29T10:52:19.097Z,20
2022-10-29T10:57:31.795Z,20
2022-10-29T11:02:43.957Z,21
2022-10-29T11:07:59.178Z,23
2022-10-29T11:13:15.631Z,27
2022-10-29T11:18:31.091Z,29
2022-10-29T11:23:45.348Z,31
2022-10-29T11:28:59.039Z,32
2022-10-29T11:34:12.573Z,32
2022-10-29T11:39:25.859Z,33
2022-10-29T11:44:39.008Z,33
2022-10-29T11:55:03.893Z,34
2022-10-29T12:00:17.111Z,34
2022-10-29T12:05:29.931Z,34
2022-10-29T12:15:53.366Z,33
2022-10-29T12:21:06.125Z,34
2022-10-29T12:26:19.063Z,34
2022-10-29T12:36:42.879Z,34
2022-10-29T12:41:55.467Z,34
2022-10-29T12:52:19.552Z,34
2022-10-29T12:57:32.079Z,34
2022-10-29T13:02:45.293Z,34
2022-10-29T13:07:59.403Z,34
2022-10-29T13:13:12.205Z,34
2022-10-29T13:18:24.464Z,34
2022-10-29T13:28:47.400Z,34
2022-10-29T13:44:21.511Z,34
2022-10-29T14:30:54.306Z,26
2022-10-29T14:36:06.293Z,25
2022-10-29T14:56:48.718Z,24
2022-10-29T15:02:39.109Z,24
2022-10-29T15:07:47.173Z,24
2022-10-29T15:13:01.216Z,24
2022-10-29T15:18:13.042Z,24
2022-10-29T15:23:25.090Z,24
2022-10-29T15:33:47.585Z,23
2022-10-29T15:38:59.651Z,23
2022-10-29T15:49:21.710Z,22
2022-10-29T16:04:54.267Z,21
2022-10-29T16:15:16.935Z,21
2022-10-29T16:20:29.797Z,20
2022-10-29T16:25:41.686Z,20
2022-10-29T16:30:53.657Z,20
2022-10-29T16:36:05.523Z,20
2022-10-29T16:41:17.802Z,19
2022-10-29T16:46:29.429Z,19
2022-10-29T16:51:41.502Z,19
2022-10-29T16:56:53.819Z,19
2022-10-29T17:02:06.224Z,19
2022-10-29T17:07:18.266Z,19
2022-10-29T17:12:30.460Z,19
2022-10-29T17:17:46.943Z,19
2022-10-29T17:22:59.585Z,19
2022-10-29T17:28:11.498Z,19
2022-10-29T17:33:23.474Z,19
2022-10-29T17:38:35.565Z,18
2022-10-29T17:43:47.471Z,18
2022-10-29T17:54:09.102Z,18
2022-10-29T17:59:21.250Z,18
2022-10-29T18:04:33.064Z,17
2022-10-29T18:09:45.006Z,17
2022-10-29T18:14:56.853Z,17
2022-10-29T18:20:08.625Z,17
2022-10-29T18:25:20.917Z,17
2022-10-29T18:30:33.029Z,17
2022-10-29T18:35:45.172Z,17
2022-10-29T18:40:56.947Z,16
2022-10-29T18:46:08.935Z,16
2022-10-29T18:51:20.852Z,16
2022-10-29T18:56:32.984Z,16
2022-10-29T19:01:45.571Z,16
2022-10-29T19:06:57.246Z,16
2022-10-29T19:12:09.179Z,16
2022-10-29T19:17:25.254Z,16
2022-10-29T19:22:39.401Z,16
2022-10-29T19:27:51.785Z,16
2022-10-29T19:33:09.529Z,15
2022-10-29T19:38:24.997Z,15
2022-10-29T19:43:37.030Z,15
2022-10-29T19:48:48.958Z,15
2022-10-29T19:54:00.591Z,15
2022-10-29T19:59:12.454Z,15
2022-10-29T20:04:24.259Z,15
2022-10-29T20:09:36.020Z,14
2022-10-29T20:14:57.786Z,15
2022-10-29T20:20:18.320Z,15
2022-10-29T20:25:53.209Z,14
2022-10-29T20:31:01.391Z,14
2022-10-29T20:36:13.311Z,14
2022-10-29T20:41:25.157Z,14
2022-10-29T20:46:44.230Z,14
2022-10-29T20:51:59.005Z,14
2022-10-29T20:57:11.041Z,14
2022-10-29T21:02:23.405Z,14
2022-10-29T21:07:40.322Z,14
2022-10-29T21:12:52.086Z,14
2022-10-29T21:18:04.032Z,14
2022-10-29T21:23:24.421Z,14
2022-10-29T21:28:36.228Z,13
2022-10-29T21:33:48.419Z,14
2022-10-29T21:38:59.909Z,14
2022-10-29T21:44:11.744Z,14
2022-10-29T21:49:23.805Z,14
2022-10-29T21:54:35.739Z,14
2022-10-29T21:59:47.358Z,14
2022-10-29T22:04:59.239Z,14
2022-10-29T22:10:11.078Z,13
2022-10-29T22:15:22.977Z,13
2022-10-29T22:20:34.932Z,13
2022-10-29T22:25:46.987Z,13
2022-10-29T22:30:58.632Z,13
2022-10-29T22:36:10.487Z,13
2022-10-29T22:41:22.418Z,13
2022-10-29T22:46:34.212Z,13
2022-10-29T22:51:45.794Z,13
2022-10-29T22:56:57.664Z,13
2022-10-29T23:02:09.964Z,13
2022-10-29T23:07:22.245Z,13
2022-10-29T23:12:34.022Z,13
2022-10-29T23:17:45.623Z,13
2022-10-29T23:22:58.545Z,12
2022-10-29T23:28:10.926Z,12
2022-10-29T23:33:22.560Z,12
2022-10-29T23:38:34.503Z,12
2022-10-29T23:43:46.440Z,12
2022-10-29T23:48:58.269Z,12
2022-10-29T23:54:10.036Z,12
2022-10-29T23:59:21.930Z,12
